Time;durP1;ratioP1;P1;durP2;ratioP2;P2;SDS_P1;SDS_P2;PMS_P1;PMS_P2;Temp;Humidity;BMP_temperature;BMP_pressure;BME280_temperature;BME280_humidity;BME280_pressure;Samples;Min_cycle;Max_cycle;Signal;HPM_P1;HPM_P2
2022/02/16 00:00:13;;;;;;;6.07;1.30;;;6.20;94.50;;;;;;4899073;29;20514;-78
2022/02/16 04:43:29;;;;;;;1.37;0.60;;;7.40;95.20;;;;;;5275922;23;20341;-77
2022/02/16 04:45:56;;;;;;;1.10;0.50;;;7.40;95.20;;;;;;4951096;29;20351;-79
2022/02/16 04:48:23;;;;;;;1.90;0.70;;;7.40;95.20;;;;;;4945463;29;20138;-79
2022/02/16 04:50:51;;;;;;;1.95;0.57;;;7.40;95.30;;;;;;4936506;29;20048;-78
2022/02/16 04:53:18;;;;;;;2.08;0.80;;;7.50;95.30;;;;;;4948843;29;20518;-79
2022/02/16 04:55:45;;;;;;;1.40;0.50;;;7.40;95.30;;;;;;4955716;29;20071;-79
2022/02/16 04:58:12;;;;;;;2.08;0.60;;;7.40;95.40;;;;;;4955373;29;20391;-79
2022/02/16 05:00:40;;;;;;;1.67;0.55;;;7.50;95.40;;;;;;4955625;29;20074;-78
2022/02/16 05:03:07;;;;;;;1.55;0.47;;;7.40;95.40;;;;;;4955403;29;20562;-77
2022/02/16 05:05:34;;;;;;;1.15;0.40;;;7.50;95.70;;;;;;4937570;29;20471;-78
2022/02/16 05:08:01;;;;;;;2.00;0.60;;;7.50;95.40;;;;;;4936313;29;20048;-79
2022/02/16 05:10:28;;;;;;;2.58;0.70;;;7.50;95.40;;;;;;4934531;29;20603;-76
2022/02/16 05:12:55;;;;;;;2.80;0.70;;;7.50;95.50;;;;;;4944916;29;20050;-76
2022/02/16 05:15:22;;;;;;;1.70;0.40;;;7.50;95.60;;;;;;4936087;29;20489;-76
2022/02/16 05:17:51;;;;;;;2.08;0.40;;;7.50;95.70;;;;;;4936195;29;20055;-79
2022/02/16 05:20:18;;;;;;;1.35;0.47;;;7.60;95.70;;;;;;4935971;29;20465;-79
2022/02/16 05:22:46;;;;;;;1.65;0.43;;;7.60;95.80;;;;;;4935872;29;20143;-77
2022/02/16 05:25:13;;;;;;;1.15;0.55;;;7.60;95.80;;;;;;4936048;29;20150;-78
2022/02/16 05:27:40;;;;;;;1.50;0.52;;;7.60;95.80;;;;;;4937410;29;20058;-78
2022/02/16 05:30:09;;;;;;;1.55;0.50;;;7.60;95.80;;;;;;4945210;29;20082;-78
2022/02/16 05:32:37;;;;;;;1.00;0.38;;;7.70;95.80;;;;;;4939484;29;20054;-78
2022/02/16 05:35:09;;;;;;;1.55;0.60;;;7.60;95.80;;;;;;4955022;29;20094;-78
2022/02/16 05:37:36;;;;;;;2.10;0.57;;;7.60;95.90;;;;;;4954874;29;20047;-78
2022/02/16 05:40:03;;;;;;;1.17;0.40;;;7.60;95.90;;;;;;4954712;29;20510;-78
2022/02/16 05:42:30;;;;;;;0.90;0.40;;;7.70;96.00;;;;;;4954846;29;20139;-78
2022/02/16 05:44:57;;;;;;;1.67;0.40;;;7.70;96.00;;;;;;4954787;29;20134;-78
2022/02/16 05:47:24;;;;;;;0.80;0.30;;;7.70;96.00;;;;;;4954799;29;20130;-78
2022/02/16 05:49:51;;;;;;;1.17;0.50;;;7.70;96.00;;;;;;4960926;28;20043;-79
2022/02/16 05:52:20;;;;;;;1.90;0.50;;;7.70;96.10;;;;;;4961118;28;20061;-79
2022/02/16 05:54:47;;;;;;;0.75;0.45;;;7.70;96.10;;;;;;4961358;28;20568;-79
2022/02/16 05:57:14;;;;;;;0.80;0.40;;;7.70;96.20;;;;;;4960834;28;20052;-79
2022/02/16 05:59:41;;;;;;;1.00;0.40;;;7.70;96.10;;;;;;4961027;29;20043;-79
2022/02/16 06:02:08;;;;;;;1.55;0.47;;;7.70;96.10;;;;;;4960846;29;20505;-80
2022/02/16 06:04:35;;;;;;;1.65;0.50;;;7.80;96.10;;;;;;4961027;28;20043;-79
2022/02/16 06:07:03;;;;;;;1.20;0.40;;;7.80;96.10;;;;;;4961200;29;20062;-79
2022/02/16 06:09:31;;;;;;;0.95;0.40;;;7.80;96.10;;;;;;4961300;29;20134;-79
2022/02/16 06:11:58;;;;;;;1.10;0.50;;;7.80;96.10;;;;;;4961164;29;20127;-79
2022/02/16 06:14:25;;;;;;;1.38;0.40;;;7.70;96.10;;;;;;4960867;29;20051;-79
2022/02/16 06:16:52;;;;;;;1.65;0.77;;;7.70;96.00;;;;;;4960937;29;20134;-79
2022/02/16 06:19:19;;;;;;;1.95;0.50;;;7.70;96.00;;;;;;4960827;29;20579;-79
2022/02/16 06:21:46;;;;;;;1.02;0.40;;;7.80;96.00;;;;;;4960937;28;20047;-80
2022/02/16 06:24:14;;;;;;;1.02;0.45;;;7.80;96.00;;;;;;4960952;29;20054;-79
2022/02/16 06:26:43;;;;;;;1.67;0.60;;;7.70;96.00;;;;;;4960896;29;20057;-79
2022/02/16 06:29:10;;;;;;;2.03;0.60;;;7.70;96.10;;;;;;4960989;28;20424;-79
2022/02/16 06:31:37;;;;;;;1.70;0.60;;;7.60;96.00;;;;;;4960892;29;20049;-79
2022/02/16 06:34:04;;;;;;;1.52;0.77;;;7.70;96.00;;;;;;4960821;28;20054;-79
2022/02/16 06:36:31;;;;;;;2.92;0.60;;;7.70;96.10;;;;;;4960729;29;20083;-79
2022/02/16 06:39:01;;;;;;;1.70;0.60;;;7.70;96.20;;;;;;4960743;28;20082;-79
2022/02/16 06:41:31;;;;;;;3.22;0.80;;;7.70;96.20;;;;;;4960726;29;20492;-79
2022/02/16 06:44:00;;;;;;;1.55;0.60;;;7.70;96.20;;;;;;4960683;29;20564;-80
2022/02/16 06:46:27;;;;;;;1.75;0.73;;;7.70;96.20;;;;;;4960905;28;20049;-79
2022/02/16 06:48:54;;;;;;;2.20;0.70;;;7.70;96.50;;;;;;4960600;28;20508;-79
2022/02/16 06:51:24;;;;;;;1.70;0.52;;;7.80;96.20;;;;;;4960684;28;20057;-79
2022/02/16 06:53:55;;;;;;;1.80;0.60;;;7.80;96.30;;;;;;4960588;28;20053;-79
2022/02/16 06:56:28;;;;;;;1.05;0.50;;;7.70;96.20;;;;;;4960587;29;20082;-79
2022/02/16 06:58:55;;;;;;;1.98;0.50;;;7.80;96.30;;;;;;4960787;29;20051;-79
2022/02/16 07:01:23;;;;;;;1.55;0.50;;;7.70;96.40;;;;;;4957353;28;20134;-79
2022/02/16 07:03:50;;;;;;;1.17;0.47;;;7.80;96.50;;;;;;4957452;29;20052;-79
2022/02/16 07:06:17;;;;;;;1.33;0.40;;;7.80;96.50;;;;;;4957558;29;20469;-79
2022/02/16 07:08:44;;;;;;;1.58;0.50;;;7.80;96.60;;;;;;4957734;29;20126;-79
2022/02/16 07:11:11;;;;;;;1.48;0.43;;;7.80;96.60;;;;;;4957588;29;20051;-79
2022/02/16 07:13:39;;;;;;;2.53;0.65;;;7.90;96.80;;;;;;4957475;29;20130;-79
2022/02/16 07:16:06;;;;;;;1.75;0.60;;;7.90;96.70;;;;;;4957410;29;20051;-79
2022/02/16 07:18:39;;;;;;;1.13;0.40;;;7.90;96.80;;;;;;4957168;29;20062;-79
2022/02/16 07:21:06;;;;;;;1.10;0.43;;;7.90;96.80;;;;;;4957485;29;20047;-79
2022/02/16 07:23:34;;;;;;;1.48;0.47;;;7.90;96.80;;;;;;4957306;29;20054;-79
2022/02/16 07:26:01;;;;;;;1.27;0.43;;;7.90;96.90;;;;;;4957079;29;20168;-79
2022/02/16 07:28:28;;;;;;;3.85;0.60;;;7.90;97.00;;;;;;4957132;29;20404;-79
2022/02/16 07:30:56;;;;;;;1.67;0.52;;;8.00;96.90;;;;;;4957065;29;20471;-79
2022/02/16 07:33:24;;;;;;;1.08;0.40;;;7.90;96.90;;;;;;4957047;29;20044;-80
2022/02/16 07:35:52;;;;;;;1.67;0.50;;;8.00;96.90;;;;;;4957169;29;20053;-79
2022/02/16 07:38:19;;;;;;;1.27;0.47;;;8.00;97.00;;;;;;4957024;29;20266;-80
2022/02/16 07:40:49;;;;;;;1.55;0.40;;;8.00;97.10;;;;;;4956875;29;20138;-79
2022/02/16 07:43:16;;;;;;;1.63;0.50;;;8.10;97.20;;;;;;4956768;29;20499;-80
2022/02/16 07:45:44;;;;;;;1.08;0.40;;;8.00;97.10;;;;;;4956842;29;20466;-79
2022/02/16 07:48:12;;;;;;;1.33;0.50;;;8.00;97.20;;;;;;4956711;29;20453;-79
2022/02/16 07:50:39;;;;;;;1.17;0.40;;;8.00;97.20;;;;;;4956757;29;20142;-79
2022/02/16 07:53:11;;;;;;;0.93;0.35;;;8.10;97.20;;;;;;4956619;29;20382;-79
2022/02/16 07:55:39;;;;;;;2.67;0.40;;;8.00;97.20;;;;;;4956756;29;20043;-79
2022/02/16 07:58:06;;;;;;;0.90;0.30;;;8.10;97.30;;;;;;4956446;29;20058;-79
2022/02/16 08:00:34;;;;;;;1.90;0.40;;;8.20;97.30;;;;;;4956521;29;20043;-79
2022/02/16 08:03:02;;;;;;;1.48;0.40;;;8.20;97.50;;;;;;4956642;29;20047;-79
2022/02/16 08:05:31;;;;;;;1.58;0.40;;;8.20;97.70;;;;;;4956607;29;20048;-79
2022/02/16 08:07:58;;;;;;;1.30;0.50;;;8.20;97.90;;;;;;4956478;29;20058;-79
2022/02/16 08:10:27;;;;;;;0.90;0.30;;;8.20;98.10;;;;;;4956534;29;20047;-79
2022/02/16 08:12:59;;;;;;;0.80;0.30;;;8.20;98.50;;;;;;4955373;28;20397;-80
2022/02/16 08:15:28;;;;;;;1.02;0.50;;;8.10;98.70;;;;;;4956672;29;20055;-79
2022/02/16 08:17:57;;;;;;;0.73;0.30;;;8.20;98.90;;;;;;4956203;29;20053;-79
2022/02/16 08:20:25;;;;;;;1.40;0.40;;;8.20;99.10;;;;;;4956365;29;20047;-79
2022/02/16 08:22:52;;;;;;;1.20;0.43;;;8.20;99.40;;;;;;4956419;29;20051;-79
2022/02/16 08:25:20;;;;;;;2.35;0.30;;;8.20;99.60;;;;;;4956190;29;20079;-79
2022/02/16 08:27:49;;;;;;;0.75;0.30;;;8.20;99.90;;;;;;4955940;29;20488;-79
2022/02/16 08:30:16;;;;;;;1.30;0.30;;;8.20;99.90;;;;;;4956205;29;20047;-79
2022/02/16 08:32:48;;;;;;;1.15;0.30;;;8.20;99.90;;;;;;4955909;29;20047;-79
2022/02/16 08:35:15;;;;;;;0.85;0.38;;;8.20;99.90;;;;;;4956131;29;20047;-79
2022/02/16 08:37:42;;;;;;;0.80;0.25;;;8.20;99.80;;;;;;4956037;29;20058;-79
2022/02/16 08:40:12;;;;;;;0.93;0.32;;;8.30;99.90;;;;;;4955924;29;20137;-79
2022/02/16 08:42:39;;;;;;;1.50;0.43;;;8.30;99.90;;;;;;4955641;29;20557;-79
2022/02/16 08:45:09;;;;;;;1.15;0.32;;;8.30;99.90;;;;;;4955891;29;20489;-79
2022/02/16 08:47:37;;;;;;;0.85;0.30;;;8.30;99.90;;;;;;4955823;29;20416;-79
2022/02/16 08:50:05;;;;;;;0.32;0.17;;;8.30;99.90;;;;;;4955820;29;20047;-79
2022/02/16 08:52:32;;;;;;;1.30;0.40;;;8.30;99.90;;;;;;4955711;29;20061;-79
2022/02/16 08:54:59;;;;;;;1.13;0.40;;;8.30;99.90;;;;;;4955809;29;20074;-79
2022/02/16 08:57:26;;;;;;;2.28;0.45;;;8.30;99.90;;;;;;4955891;29;20134;-79
2022/02/16 08:59:56;;;;;;;1.23;0.52;;;8.30;99.90;;;;;;4955396;29;20058;-79
2022/02/16 09:02:24;;;;;;;1.50;0.50;;;8.40;99.90;;;;;;4955887;29;20134;-79
2022/02/16 09:04:53;;;;;;;1.00;0.40;;;8.40;99.90;;;;;;4955227;29;20564;-79
2022/02/16 09:07:31;;;;;;;1.15;0.38;;;8.40;99.90;;;;;;4955499;29;20090;-79
2022/02/16 09:10:07;;;;;;;1.48;0.40;;;8.40;99.90;;;;;;4955364;29;20493;-79
2022/02/16 09:12:34;;;;;;;0.68;0.35;;;8.50;99.90;;;;;;4955402;29;20138;-79
2022/02/16 09:15:04;;;;;;;1.35;0.30;;;8.40;99.90;;;;;;4955339;29;20055;-79
2022/02/16 09:17:36;;;;;;;1.15;0.40;;;8.50;99.90;;;;;;4955328;29;20101;-79
2022/02/16 09:20:06;;;;;;;0.55;0.30;;;8.40;99.90;;;;;;4955011;29;20063;-79
2022/02/16 09:22:34;;;;;;;1.98;0.30;;;8.40;99.90;;;;;;4955168;28;20047;-79
2022/02/16 09:25:01;;;;;;;1.55;0.50;;;8.50;99.90;;;;;;4955066;29;20043;-79
2022/02/16 09:27:28;;;;;;;0.82;0.30;;;8.50;99.90;;;;;;4955083;29;20058;-79
2022/02/16 09:29:56;;;;;;;1.05;0.20;;;8.40;99.90;;;;;;4954814;29;20051;-79
2022/02/16 09:32:27;;;;;;;0.70;0.20;;;8.40;99.90;;;;;;4955473;29;20054;-79
2022/02/16 09:34:58;;;;;;;1.20;0.35;;;8.40;99.90;;;;;;4954992;29;20552;-79
2022/02/16 09:37:26;;;;;;;1.98;0.40;;;8.40;99.90;;;;;;4955143;29;20469;-79
2022/02/16 09:39:53;;;;;;;1.00;0.20;;;8.50;99.90;;;;;;4953725;29;20059;-79
2022/02/16 09:42:21;;;;;;;0.73;0.20;;;8.50;99.90;;;;;;4940888;29;20115;-79
2022/02/16 09:44:55;;;;;;;0.40;0.20;;;8.40;99.90;;;;;;4953234;29;20047;-79
2022/02/16 09:47:25;;;;;;;0.73;0.30;;;8.40;99.90;;;;;;4937752;29;20051;-78
2022/02/16 09:49:52;;;;;;;0.70;0.28;;;8.50;99.90;;;;;;4935821;29;20159;-79
2022/02/16 09:52:21;;;;;;;1.30;0.25;;;8.50;99.90;;;;;;4935467;29;20044;-79
2022/02/16 09:54:49;;;;;;;0.45;0.20;;;8.50;99.90;;;;;;4935272;29;20048;-79
2022/02/16 09:57:17;;;;;;;0.90;0.30;;;8.50;99.90;;;;;;4935623;29;20047;-78
2022/02/16 09:59:45;;;;;;;1.75;0.35;;;8.50;99.90;;;;;;4935455;29;20485;-79
2022/02/16 10:02:15;;;;;;;0.70;0.40;;;8.50;99.90;;;;;;4935755;29;20055;-79
2022/02/16 10:04:56;;;;;;;0.52;0.20;;;8.50;99.90;;;;;;4935607;29;20054;-79
2022/02/16 10:07:27;;;;;;;0.45;0.20;;;8.60;99.90;;;;;;4936009;29;20138;-79
2022/02/16 10:10:17;;;;;;;0.75;0.20;;;8.70;99.90;;;;;;4935429;29;20060;-79
2022/02/16 10:12:47;;;;;;;0.57;0.20;;;8.70;99.90;;;;;;4936394;29;20051;-79
2022/02/16 10:15:17;;;;;;;0.75;0.30;;;8.70;99.90;;;;;;4935820;29;20465;-78
2022/02/16 10:17:44;;;;;;;0.22;0.20;;;8.70;99.90;;;;;;4946455;29;20051;-79
2022/02/16 10:20:16;;;;;;;0.68;0.20;;;8.80;99.90;;;;;;4952406;29;20099;-78
2022/02/16 10:22:47;;;;;;;0.77;0.28;;;8.90;99.90;;;;;;4953918;29;20053;-78
2022/02/16 10:25:17;;;;;;;0.52;0.20;;;9.00;99.90;;;;;;4954197;29;20075;-78
2022/02/16 10:28:08;;;;;;;0.50;0.20;;;8.90;99.90;;;;;;4954141;29;20054;-78
2022/02/16 10:30:38;;;;;;;0.35;0.20;;;9.00;99.90;;;;;;4953603;29;20126;-78
2022/02/16 10:33:23;;;;;;;0.30;0.20;;;9.00;99.90;;;;;;4954017;29;20508;-78
2022/02/16 10:35:59;;;;;;;1.10;0.30;;;9.10;99.90;;;;;;4955971;28;20086;-78
2022/02/16 10:38:27;;;;;;;1.17;0.30;;;9.10;99.80;;;;;;4957639;29;20178;-79
2022/02/16 10:41:08;;;;;;;0.52;0.20;;;9.20;99.70;;;;;;4956675;29;20134;-78
2022/02/16 10:43:38;;;;;;;0.77;0.30;;;9.20;99.70;;;;;;4937582;29;20058;-78
2022/02/16 10:46:19;;;;;;;0.60;0.30;;;9.20;99.40;;;;;;4938470;29;20050;-78
2022/02/16 10:48:46;;;;;;;1.05;0.30;;;9.30;99.30;;;;;;4938502;29;20048;-78
2022/02/16 10:51:18;;;;;;;1.30;0.45;;;9.30;99.30;;;;;;4938257;29;20394;-78
2022/02/16 10:53:47;;;;;;;0.65;0.30;;;9.30;99.20;;;;;;4938435;29;20047;-78
2022/02/16 10:56:14;;;;;;;0.43;0.30;;;9.30;99.10;;;;;;4937696;29;20054;-78
2022/02/16 10:58:41;;;;;;;0.85;0.30;;;9.40;99.10;;;;;;4938101;29;20056;-78
2022/02/16 11:01:11;;;;;;;1.13;0.40;;;9.40;99.20;;;;;;4938967;29;20048;-78
2022/02/16 11:03:43;;;;;;;1.58;0.30;;;9.50;99.10;;;;;;4938771;29;20039;-78
2022/02/16 11:06:14;;;;;;;1.15;0.50;;;9.60;99.00;;;;;;4939910;29;20059;-78
2022/02/16 11:08:43;;;;;;;0.60;0.30;;;9.60;99.00;;;;;;4956696;29;20055;-78
2022/02/16 11:11:14;;;;;;;0.50;0.15;;;9.70;99.10;;;;;;4940223;29;20056;-78
2022/02/16 11:13:42;;;;;;;0.95;0.20;;;9.80;98.80;;;;;;4937944;29;20052;-78
2022/02/16 11:16:11;;;;;;;0.30;0.15;;;9.80;98.70;;;;;;4937695;29;20054;-78
2022/02/16 11:18:47;;;;;;;0.13;0.10;;;10.00;98.60;;;;;;4937601;29;20501;-78
2022/02/16 11:21:17;;;;;;;0.35;0.15;;;10.00;98.60;;;;;;4937130;29;20528;-78
2022/02/16 11:23:48;;;;;;;1.33;0.20;;;10.10;98.10;;;;;;4937759;29;20044;-78
2022/02/16 11:26:40;;;;;;;1.30;0.22;;;10.20;98.00;;;;;;4938557;29;20048;-78
2022/02/16 11:29:31;;;;;;;0.13;0.10;;;10.30;98.00;;;;;;4937520;29;20047;-78
2022/02/16 11:32:27;;;;;;;0.80;0.20;;;10.40;97.60;;;;;;4937295;29;20090;-78
2022/02/16 11:35:21;;;;;;;0.52;0.20;;;10.40;97.80;;;;;;4936617;29;20047;-78
2022/02/16 11:37:50;;;;;;;;;;;10.60;97.50;;;;;;4937793;29;20478;-78
2022/02/16 11:40:34;;;;;;;0.32;0.20;;;10.70;97.20;;;;;;4936795;29;19986;-78
2022/02/16 11:43:03;;;;;;;0.30;0.20;;;10.70;97.30;;;;;;4937255;29;20051;-78
2022/02/16 11:45:55;;;;;;;0.50;0.10;;;10.70;97.30;;;;;;4937088;29;20054;-78
2022/02/16 11:48:44;;;;;;;0.40;0.10;;;10.80;97.30;;;;;;4936661;29;20275;-78
2022/02/16 11:51:38;;;;;;;0.28;0.15;;;10.90;97.50;;;;;;4937183;29;20048;-80
2022/02/16 11:54:45;;;;;;;0.35;0.13;;;10.90;97.50;;;;;;4936437;29;20052;-79
2022/02/16 11:57:44;;;;;;;1.65;0.20;;;10.90;97.40;;;;;;4937068;29;20139;-79
2022/02/16 12:00:33;;;;;;;0.32;0.10;;;10.90;97.60;;;;;;4936370;29;20087;-79
2022/02/16 12:03:22;;;;;;;0.40;0.20;;;11.00;97.50;;;;;;4937185;29;20458;-79
2022/02/16 12:06:07;;;;;;;0.47;0.20;;;11.00;97.60;;;;;;4936855;29;20417;-79
2022/02/16 12:08:37;;;;;;;0.82;0.30;;;11.00;97.70;;;;;;4935983;29;20074;-79
2022/02/16 12:11:19;;;;;;;0.50;0.20;;;11.10;97.60;;;;;;4936853;29;20050;-79
2022/02/16 12:13:49;;;;;;;0.80;0.30;;;11.10;97.70;;;;;;4936445;29;20130;-79
2022/02/16 12:16:25;;;;;;;0.50;0.20;;;11.10;97.60;;;;;;4936852;29;20196;-79
2022/02/16 12:18:52;;;;;;;0.55;0.20;;;11.10;97.70;;;;;;4936712;29;20086;-79
2022/02/16 12:21:29;;;;;;;0.68;0.20;;;11.10;97.80;;;;;;4936215;29;20454;-79
2022/02/16 12:23:59;;;;;;;1.67;0.20;;;11.10;98.00;;;;;;4936664;29;20163;-79
2022/02/16 12:26:29;;;;;;;0.82;0.22;;;11.10;97.90;;;;;;4936026;29;20412;-79
2022/02/16 12:29:02;;;;;;;0.98;0.25;;;11.10;97.90;;;;;;4936440;29;20074;-79
2022/02/16 12:31:35;;;;;;;0.57;0.20;;;11.10;97.90;;;;;;4936314;29;20043;-79
2022/02/16 12:34:07;;;;;;;0.55;0.22;;;11.10;98.00;;;;;;4936647;29;20075;-78
2022/02/16 12:36:37;;;;;;;1.08;0.28;;;11.10;98.60;;;;;;4943057;29;20191;-79
2022/02/16 12:39:08;;;;;;;1.45;0.50;;;11.00;99.20;;;;;;4944917;29;20062;-79
2022/02/16 12:41:36;;;;;;;0.90;0.30;;;10.90;99.60;;;;;;4950527;29;20043;-79
2022/02/16 12:44:08;;;;;;;0.63;0.30;;;10.90;99.90;;;;;;4949475;29;20585;-79
2022/02/16 12:46:39;;;;;;;1.08;0.20;;;10.90;99.90;;;;;;4935977;29;20504;-78
2022/02/16 12:49:10;;;;;;;0.40;0.20;;;10.90;99.90;;;;;;4936066;29;20386;-79
2022/02/16 12:51:42;;;;;;;1.13;0.30;;;10.80;99.90;;;;;;4936099;29;20110;-79
2022/02/16 12:54:12;;;;;;;2.25;0.30;;;10.70;99.90;;;;;;4935227;29;20095;-78
2022/02/16 12:56:43;;;;;;;1.42;0.20;;;10.70;99.90;;;;;;4935427;29;20075;-79
2022/02/16 12:59:30;;;;;;;0.85;0.30;;;10.70;99.90;;;;;;4935537;29;20043;-78
2022/02/16 13:02:20;;;;;;;0.75;0.30;;;10.70;99.90;;;;;;4936051;29;20134;-78
2022/02/16 13:04:55;;;;;;;0.63;0.20;;;10.70;99.90;;;;;;4936143;29;20098;-78
2022/02/16 13:07:24;;;;;;;0.57;0.30;;;10.60;99.90;;;;;;4935536;29;20052;-78
2022/02/16 13:09:53;;;;;;;1.13;0.40;;;10.70;99.90;;;;;;4935692;29;20055;-78
2022/02/16 13:12:39;;;;;;;0.88;0.32;;;10.70;99.90;;;;;;4935773;29;20056;-78
2022/02/16 13:15:08;;;;;;;1.08;0.30;;;10.70;99.90;;;;;;4936758;29;20061;-78
2022/02/16 13:17:43;;;;;;;1.10;0.28;;;10.70;99.90;;;;;;4935552;29;20576;-78
2022/02/16 13:20:18;;;;;;;0.50;0.20;;;10.70;99.90;;;;;;4935066;29;20055;-78
2022/02/16 13:22:51;;;;;;;0.82;0.20;;;10.70;99.90;;;;;;4935674;29;20135;-78
2022/02/16 13:25:29;;;;;;;0.63;0.30;;;10.80;99.90;;;;;;4935720;29;20138;-78
2022/02/16 13:28:00;;;;;;;0.93;0.30;;;10.80;99.90;;;;;;4935424;29;20175;-78
2022/02/16 13:30:32;;;;;;;0.85;0.32;;;10.80;99.90;;;;;;4935606;29;20465;-78
2022/02/16 13:33:17;;;;;;;0.15;0.10;;;10.90;99.90;;;;;;4934945;29;20048;-78
2022/02/16 13:35:47;;;;;;;1.90;0.30;;;10.90;99.90;;;;;;4935363;29;20067;-78
2022/02/16 13:38:26;;;;;;;1.17;0.30;;;10.90;99.90;;;;;;4935292;29;20107;-79
2022/02/16 13:40:57;;;;;;;0.98;0.20;;;11.00;99.90;;;;;;4935199;29;20111;-78
2022/02/16 13:43:43;;;;;;;0.70;0.30;;;11.10;99.90;;;;;;4935393;29;20052;-78
2022/02/16 13:46:13;;;;;;;0.52;0.10;;;11.10;99.90;;;;;;4934766;29;20047;-78
2022/02/16 13:48:42;;;;;;;1.55;0.30;;;11.20;99.90;;;;;;4935266;29;20146;-78
2022/02/16 13:51:17;;;;;;;1.55;0.40;;;11.20;99.90;;;;;;4935633;29;20131;-78
2022/02/16 13:53:52;;;;;;;5.82;1.92;;;11.30;99.90;;;;;;4935373;29;20442;-78
2022/02/16 13:56:23;;;;;;;3.10;0.95;;;11.30;99.90;;;;;;4936186;29;20039;-78
2022/02/16 13:58:51;;;;;;;0.30;0.10;;;11.30;99.90;;;;;;4934503;29;20498;-78
2022/02/16 14:01:20;;;;;;;0.93;0.40;;;11.30;99.90;;;;;;4935407;29;20055;-78
2022/02/16 14:04:05;;;;;;;1.38;0.20;;;11.30;99.90;;;;;;4935117;29;20493;-78
2022/02/16 14:06:33;;;;;;;2.20;0.63;;;11.40;99.90;;;;;;4935497;29;20134;-78
2022/02/16 14:09:01;;;;;;;1.48;0.30;;;11.40;99.90;;;;;;4935705;29;20102;-78
2022/02/16 14:11:32;;;;;;;0.47;0.30;;;11.40;99.90;;;;;;4938543;29;20051;-78
2022/02/16 14:13:59;;;;;;;0.90;0.30;;;11.50;99.90;;;;;;4939277;29;20079;-79
2022/02/16 14:16:27;;;;;;;0.30;0.20;;;11.60;99.90;;;;;;4938918;29;20075;-78
2022/02/16 14:21:40;;;;;;;2.00;0.30;;;11.50;99.70;;;;;;4938581;29;20417;-78
2022/02/16 14:24:09;;;;;;;1.42;0.35;;;11.50;99.70;;;;;;4938413;29;20056;-78
2022/02/16 14:26:37;;;;;;;0.95;0.30;;;11.50;99.70;;;;;;4938878;29;20067;-79
2022/02/16 14:29:05;;;;;;;0.77;0.45;;;11.60;99.70;;;;;;4938596;29;20052;-78
2022/02/16 14:31:33;;;;;;;0.90;0.40;;;11.60;99.70;;;;;;4938588;29;20135;-79
2022/02/16 14:34:03;;;;;;;0.93;0.35;;;11.60;99.70;;;;;;4938670;29;20482;-78
2022/02/16 14:36:36;;;;;;;1.55;0.50;;;11.60;99.70;;;;;;4938590;29;20453;-78
2022/02/16 14:39:06;;;;;;;1.02;0.20;;;11.50;99.70;;;;;;4938344;29;20048;-78
2022/02/16 14:41:37;;;;;;;0.85;0.40;;;11.50;99.80;;;;;;4939638;29;20445;-78
2022/02/16 14:44:06;;;;;;;1.90;0.40;;;11.50;99.80;;;;;;4938282;29;20497;-77
2022/02/16 14:46:35;;;;;;;1.85;0.40;;;11.50;99.90;;;;;;4938375;29;20458;-78
2022/02/16 14:49:03;;;;;;;0.80;0.30;;;11.50;99.90;;;;;;4938870;29;20429;-79
2022/02/16 14:51:32;;;;;;;1.17;0.30;;;11.50;99.90;;;;;;4937991;29;20085;-79
2022/02/16 14:53:59;;;;;;;0.75;0.38;;;11.50;99.90;;;;;;4938555;29;20055;-79
2022/02/16 14:56:29;;;;;;;0.68;0.30;;;11.50;99.90;;;;;;4938174;29;20493;-78
2022/02/16 14:58:56;;;;;;;1.05;0.35;;;11.40;99.90;;;;;;4946878;29;20134;-80
2022/02/16 15:01:23;;;;;;;0.52;0.30;;;11.40;99.90;;;;;;4946232;29;20135;-79
2022/02/16 15:03:50;;;;;;;0.90;0.30;;;11.40;99.90;;;;;;4956887;29;20047;-79
2022/02/16 15:06:17;;;;;;;0.93;0.30;;;11.40;99.90;;;;;;4944823;29;20051;-79
2022/02/16 15:08:44;;;;;;;0.63;0.32;;;11.40;99.90;;;;;;4937915;29;20354;-79
2022/02/16 15:11:15;;;;;;;0.80;0.20;;;11.40;99.90;;;;;;4937798;29;20052;-78
2022/02/16 15:13:43;;;;;;;1.00;0.40;;;11.40;99.90;;;;;;4937976;29;20086;-78
2022/02/16 15:16:11;;;;;;;0.93;0.30;;;11.40;99.90;;;;;;4930119;29;20086;-78
2022/02/16 15:18:38;;;;;;;1.00;0.40;;;11.40;99.90;;;;;;4937493;29;20098;-78
2022/02/16 15:21:05;;;;;;;3.53;1.50;;;11.40;99.90;;;;;;4937091;29;20052;-78
2022/02/16 15:23:32;;;;;;;6.22;2.78;;;11.40;99.90;;;;;;4956528;29;20142;-79
2022/02/16 15:26:00;;;;;;;5.78;2.70;;;11.50;99.90;;;;;;4957030;29;20044;-79
2022/02/16 15:28:27;;;;;;;1.55;0.52;;;11.50;99.90;;;;;;4956529;29;20066;-79
2022/02/16 15:30:57;;;;;;;1.38;0.52;;;11.50;99.90;;;;;;4956457;29;20122;-78
2022/02/16 15:33:24;;;;;;;1.00;0.30;;;11.50;99.90;;;;;;4956628;29;20049;-77
2022/02/16 15:35:53;;;;;;;1.52;0.57;;;11.50;99.90;;;;;;4956889;29;20531;-79
2022/02/16 15:38:21;;;;;;;1.25;0.55;;;11.50;99.90;;;;;;4956850;29;20445;-77
2022/02/16 15:40:49;;;;;;;1.60;0.60;;;11.50;99.90;;;;;;4956229;29;20047;-77
2022/02/16 15:43:16;;;;;;;1.02;0.50;;;11.50;99.90;;;;;;4956097;29;20484;-77
2022/02/16 15:45:44;;;;;;;1.25;0.57;;;11.50;99.90;;;;;;4949790;29;20127;-76
2022/02/16 15:48:13;;;;;;;1.35;0.50;;;11.50;99.90;;;;;;4937490;29;20130;-79
2022/02/16 15:50:40;;;;;;;1.38;0.52;;;11.50;99.90;;;;;;4937301;29;20051;-79
2022/02/16 15:53:09;;;;;;;1.35;0.52;;;11.50;99.90;;;;;;4934731;29;20047;-80
2022/02/16 15:55:37;;;;;;;1.35;0.50;;;11.50;99.90;;;;;;4943426;29;20086;-79
2022/02/16 15:58:04;;;;;;;0.93;0.40;;;11.50;99.90;;;;;;4955163;29;20138;-80
2022/02/16 16:00:33;;;;;;;1.25;0.47;;;11.50;99.90;;;;;;4955661;29;20079;-80
2022/02/16 16:03:01;;;;;;;1.15;0.55;;;11.40;99.90;;;;;;4956068;29;20134;-79
2022/02/16 16:05:29;;;;;;;1.38;0.50;;;11.40;99.90;;;;;;4956124;29;20516;-79
2022/02/16 16:07:56;;;;;;;1.45;0.80;;;11.40;99.90;;;;;;4955998;29;20097;-80
2022/02/16 16:10:26;;;;;;;1.83;0.85;;;11.40;99.90;;;;;;4955316;29;20134;-79
2022/02/16 16:12:53;;;;;;;1.67;0.60;;;11.40;99.90;;;;;;4936516;29;20052;-79
2022/02/16 16:15:22;;;;;;;1.98;0.85;;;11.40;99.90;;;;;;4930639;29;20083;-79
2022/02/16 16:17:50;;;;;;;2.10;0.70;;;11.40;99.90;;;;;;4936824;29;20052;-79
2022/02/16 16:20:17;;;;;;;3.13;1.33;;;11.40;99.90;;;;;;4936670;29;20052;-79
2022/02/16 16:22:45;;;;;;;0.70;0.30;;;11.40;99.90;;;;;;4936140;29;20135;-79
2022/02/16 16:25:13;;;;;;;0.93;0.43;;;11.40;99.90;;;;;;4945228;29;20048;-79
2022/02/16 16:27:42;;;;;;;1.60;0.60;;;11.40;99.90;;;;;;4936615;29;20050;-79
2022/02/16 16:30:12;;;;;;;0.95;0.40;;;11.40;99.90;;;;;;4939840;29;20058;-79
2022/02/16 16:32:39;;;;;;;1.20;0.50;;;11.40;99.90;;;;;;4954712;28;20134;-79
2022/02/16 16:35:08;;;;;;;0.95;0.30;;;11.40;99.90;;;;;;4950559;29;20054;-79
2022/02/16 16:37:35;;;;;;;0.80;0.30;;;11.40;99.90;;;;;;4938667;29;20049;-80
2022/02/16 16:40:07;;;;;;;1.35;0.60;;;11.40;99.90;;;;;;4936164;29;20079;-80
2022/02/16 16:42:36;;;;;;;1.77;0.43;;;11.40;99.90;;;;;;4936040;29;20462;-80
2022/02/16 16:45:04;;;;;;;1.42;0.57;;;11.40;99.90;;;;;;4936505;29;20089;-80
2022/02/16 16:47:31;;;;;;;0.98;0.30;;;11.40;99.90;;;;;;4936127;29;20048;-79
2022/02/16 16:49:58;;;;;;;0.93;0.40;;;11.40;99.90;;;;;;4936134;29;20056;-79
2022/02/16 16:52:28;;;;;;;1.67;0.40;;;11.40;99.90;;;;;;4939773;29;20054;-79
2022/02/16 16:54:55;;;;;;;1.52;0.43;;;11.40;99.90;;;;;;4935453;29;20083;-79
2022/02/16 16:57:23;;;;;;;1.15;0.50;;;11.40;99.90;;;;;;4944809;29;20079;-79
2022/02/16 16:59:51;;;;;;;2.33;0.50;;;11.40;99.90;;;;;;4935415;29;20107;-79
2022/02/16 17:02:18;;;;;;;0.88;0.45;;;11.40;99.90;;;;;;4939831;29;20048;-80
2022/02/16 17:04:45;;;;;;;1.38;0.50;;;11.40;99.90;;;;;;4955256;29;20043;-79
2022/02/16 17:07:13;;;;;;;0.70;0.30;;;11.40;99.90;;;;;;4953417;29;20040;-80
2022/02/16 17:09:42;;;;;;;2.10;0.50;;;11.40;99.90;;;;;;4954914;29;20089;-80
2022/02/16 17:12:10;;;;;;;1.15;0.40;;;11.40;99.90;;;;;;4954144;29;20098;-79
2022/02/16 17:14:38;;;;;;;2.63;1.10;;;11.30;99.90;;;;;;4947092;29;20099;-78
2022/02/16 17:17:07;;;;;;;0.75;0.45;;;11.30;99.90;;;;;;4945905;29;20055;-79
2022/02/16 17:19:34;;;;;;;1.02;0.40;;;11.30;99.90;;;;;;4933740;29;20055;-79
2022/02/16 17:22:01;;;;;;;1.67;0.40;;;11.30;99.90;;;;;;4946102;29;20095;-80
2022/02/16 17:24:29;;;;;;;1.02;0.50;;;11.30;99.90;;;;;;4936159;29;20048;-79
2022/02/16 17:26:56;;;;;;;1.67;0.50;;;11.30;99.90;;;;;;4948936;29;20058;-79
2022/02/16 17:29:23;;;;;;;1.35;0.43;;;11.30;99.90;;;;;;4935804;29;20058;-80
2022/02/16 17:31:52;;;;;;;2.15;0.50;;;11.30;99.90;;;;;;4935896;29;20066;-79
2022/02/16 17:34:19;;;;;;;1.38;0.50;;;11.30;99.90;;;;;;4936096;29;20094;-79
2022/02/16 17:36:48;;;;;;;3.78;2.00;;;11.30;99.90;;;;;;4936041;29;20051;-80
2022/02/16 17:39:16;;;;;;;1.48;0.65;;;11.30;99.90;;;;;;4947324;29;20398;-80
2022/02/16 17:41:43;;;;;;;1.25;0.50;;;11.30;99.90;;;;;;4952947;29;20094;-80
2022/02/16 17:46:58;;;;;;;1.70;0.47;;;11.30;99.90;;;;;;4940035;29;20055;-79
2022/02/16 17:49:28;;;;;;;1.95;0.60;;;11.40;99.90;;;;;;4938171;29;20048;-78
2022/02/16 17:51:58;;;;;;;1.38;0.50;;;11.40;99.90;;;;;;4935732;29;20062;-78
2022/02/16 17:54:33;;;;;;;1.15;0.52;;;11.40;99.90;;;;;;4935190;29;20051;-78